createdAt,value
2023-04-18T06:13:11.058Z,11.90
2023-04-18T06:18:15.995Z,12.40
2023-04-18T06:23:21.073Z,13.80
2023-04-18T06:28:29.072Z,15.50
2023-04-18T06:33:34.316Z,15.50
2023-04-18T06:38:39.498Z,16.30
2023-04-18T06:44:02.147Z,18.80
2023-04-18T06:49:08.115Z,21.50
2023-04-18T06:54:13.272Z,22.80
2023-04-18T17:15:15.227Z,16.20
2023-04-18T17:20:20.811Z,15.90
2023-04-18T17:25:26.251Z,15.90
2023-04-18T17:30:34.183Z,16.00
2023-04-18T17:35:39.574Z,15.80
2023-04-18T17:40:45.070Z,15.60
2023-04-18T17:45:53.201Z,15.50
2023-04-18T17:50:58.513Z,15.30
2023-04-18T17:56:03.963Z,15.20
2023-04-18T18:01:20.093Z,15.10
2023-04-18T18:06:27.913Z,15.00
2023-04-18T18:11:33.301Z,14.80
2023-04-18T18:16:44.310Z,14.70
2023-04-18T18:21:49.961Z,14.70
2023-04-18T18:26:55.380Z,14.60
2023-04-18T18:32:03.739Z,14.60
2023-04-18T18:37:09.031Z,14.50
2023-04-18T18:42:14.226Z,14.50
2023-04-18T18:47:22.977Z,14.40
2023-04-18T18:52:29.894Z,14.40
2023-04-18T18:57:35.157Z,14.20
2023-04-18T19:02:43.077Z,14.10
2023-04-18T19:07:48.465Z,14.00
2023-04-18T19:12:53.922Z,13.90
2023-04-18T19:18:01.748Z,13.80
2023-04-18T19:23:07.019Z,13.70
2023-04-18T19:28:13.053Z,13.60
2023-04-18T19:33:21.407Z,13.50
2023-04-18T19:38:26.772Z,13.50
2023-04-18T19:43:31.984Z,13.50
2023-04-18T19:48:39.838Z,13.70
2023-04-18T19:53:45.197Z,13.80
2023-04-18T19:58:51.187Z,13.90
2023-04-18T20:04:00.681Z,13.90
2023-04-18T20:09:08.748Z,14.00
2023-04-18T20:14:13.987Z,14.00
2023-04-18T20:19:24.698Z,14.00
2023-04-18T20:24:31.890Z,14.00
2023-04-18T20:29:37.154Z,14.00
2023-04-18T20:34:45.829Z,14.00
2023-04-18T20:39:51.151Z,14.00
2023-04-18T20:44:58.889Z,14.00
2023-04-18T20:50:07.156Z,14.00
2023-04-18T20:55:12.886Z,13.90
2023-04-18T21:00:18.545Z,13.90
2023-04-18T21:05:26.821Z,13.90
2023-04-18T21:10:32.031Z,14.00
2023-04-18T21:15:38.426Z,13.90
2023-04-18T21:20:46.320Z,13.90
2023-04-18T21:25:51.496Z,13.80
2023-04-18T21:30:56.770Z,13.80
2023-04-18T21:36:04.566Z,13.80
2023-04-18T21:41:09.881Z,13.80
2023-04-18T21:46:15.322Z,13.70
2023-04-18T21:51:23.283Z,13.70
2023-04-18T21:56:28.788Z,13.60
2023-04-18T22:01:34.579Z,13.60
2023-04-18T22:06:42.522Z,13.60
2023-04-18T22:11:47.824Z,13.60
2023-04-18T22:16:54.252Z,13.60
2023-04-18T22:22:02.286Z,13.60
2023-04-18T22:27:07.660Z,13.60
